createdAt,value
2018-04-13T00:00:27.248Z,57.06
2018-04-13T00:02:54.797Z,55.30
2018-04-13T00:05:38.854Z,55.10
2018-04-13T00:08:06.399Z,54.66
2018-04-13T00:10:33.954Z,54.63
2018-04-13T00:13:01.525Z,53.82
2018-04-13T00:15:29.092Z,54.21
2018-04-13T00:17:56.638Z,54.07
2018-04-13T00:20:24.186Z,55.12
2018-04-13T00:22:51.763Z,58.95
2018-04-13T00:25:19.315Z,62.51
2018-04-13T00:27:46.879Z,65.10
2018-04-13T00:30:14.429Z,68.04
2018-04-13T00:32:41.958Z,69.54
2018-04-13T00:35:09.505Z,68.97
2018-04-13T00:37:37.029Z,70.57
2018-04-13T00:40:04.601Z,74.89
2018-04-13T00:42:32.147Z,78.57
2018-04-13T00:44:59.683Z,78.23
2018-04-13T00:47:27.224Z,75.91
2018-04-13T00:49:54.777Z,77.45
2018-04-13T00:52:22.297Z,76.95
2018-04-13T00:54:49.848Z,79.04
2018-04-13T00:57:17.381Z,80.69
2018-04-13T00:59:44.906Z,82.08
2018-04-13T01:02:12.464Z,80.86
2018-04-13T01:04:40.010Z,80.62
2018-04-13T01:07:07.566Z,81.19
2018-04-13T01:09:35.146Z,82.71
2018-04-13T01:12:02.685Z,83.78
2018-04-13T01:14:30.223Z,83.34
2018-04-13T01:16:57.767Z,83.36
2018-04-13T01:19:25.307Z,84.05
2018-04-13T01:21:52.861Z,86.08
2018-04-13T01:24:20.431Z,86.58
2018-04-13T01:26:47.965Z,87.13
2018-04-13T01:29:15.506Z,88.64
2018-04-13T01:31:43.056Z,90.21
2018-04-13T01:34:10.765Z,90.79
2018-04-13T01:36:38.317Z,90.83
2018-04-13T01:39:06.753Z,91.58
2018-04-13T01:41:34.282Z,92.22
2018-04-13T01:44:01.867Z,92.49
2018-04-13T01:46:29.381Z,92.54
2018-04-13T01:48:56.872Z,92.73
2018-04-13T01:51:24.356Z,93.14
2018-04-13T01:53:51.871Z,93.39
2018-04-13T01:56:19.344Z,93.48
2018-04-13T01:58:46.830Z,93.60
2018-04-13T02:01:14.309Z,93.87
2018-04-13T02:03:42.150Z,93.95
2018-04-13T02:06:09.623Z,92.50
2018-04-13T02:08:37.173Z,93.26
2018-04-13T02:11:04.727Z,94.22
2018-04-13T02:13:32.294Z,94.51
2018-04-13T02:15:59.796Z,94.56
2018-04-13T02:18:27.403Z,94.40
2018-04-13T02:20:54.904Z,94.34
2018-04-13T02:23:22.403Z,94.52
2018-04-13T02:25:49.873Z,94.56
2018-04-13T02:28:17.343Z,94.79
2018-04-13T02:30:44.845Z,95.00
2018-04-13T02:33:12.352Z,94.46
2018-04-13T02:35:39.847Z,93.63
2018-04-13T02:38:07.328Z,94.05
2018-04-13T02:40:35.108Z,94.25
2018-04-13T02:43:03.048Z,94.40
2018-04-13T02:45:30.909Z,94.75
2018-04-13T02:47:58.444Z,95.08
2018-04-13T02:50:26.003Z,95.07
2018-04-13T02:52:53.596Z,94.89
2018-04-13T02:55:21.136Z,95.05
2018-04-13T02:57:48.668Z,95.45
2018-04-13T03:00:16.231Z,95.89
2018-04-13T03:02:43.747Z,95.77
2018-04-13T03:05:11.273Z,95.68
2018-04-13T03:07:38.912Z,95.62
2018-04-13T03:10:06.401Z,96.03
2018-04-13T03:12:33.940Z,96.07
2018-04-13T03:15:01.431Z,96.24
2018-04-13T03:17:28.910Z,96.61
2018-04-13T03:19:56.415Z,96.47
2018-04-13T03:22:23.884Z,96.58
2018-04-13T03:24:51.394Z,96.80
2018-04-13T03:27:18.943Z,96.70
2018-04-13T03:29:46.414Z,96.81
2018-04-13T03:32:13.891Z,96.38
2018-04-13T03:34:41.375Z,96.39
2018-04-13T03:37:08.847Z,96.22
2018-04-13T03:39:36.328Z,96.36
2018-04-13T03:42:03.862Z,96.40
2018-04-13T03:44:31.364Z,96.50
2018-04-13T03:46:58.832Z,96.27
2018-04-13T03:49:26.300Z,96.53
2018-04-13T03:51:53.789Z,96.73
2018-04-13T03:54:21.271Z,96.77
2018-04-13T03:56:48.821Z,96.53
2018-04-13T03:59:16.363Z,95.56
2018-04-13T04:01:43.846Z,95.54
2018-04-13T04:04:11.708Z,95.90
2018-04-13T04:06:39.183Z,96.17
2018-04-13T04:09:06.823Z,96.38
2018-04-13T04:11:34.331Z,96.77
2018-04-13T04:14:01.796Z,96.92
2018-04-13T04:16:29.312Z,96.98
2018-04-13T04:18:56.792Z,96.92
2018-04-13T04:21:35.962Z,97.01
2018-04-13T04:24:15.209Z,96.67
2018-04-13T04:26:48.195Z,96.71
2018-04-13T04:29:15.662Z,96.80
2018-04-13T04:31:43.156Z,96.98
2018-04-13T04:34:10.667Z,96.97
2018-04-13T04:36:38.155Z,97.09
2018-04-13T04:39:06.434Z,97.18
2018-04-13T04:41:33.944Z,97.17
2018-04-13T04:44:01.444Z,97.15
2018-04-13T04:46:28.970Z,97.13
2018-04-13T04:48:56.448Z,97.11
2018-04-13T04:51:23.987Z,97.17
2018-04-13T04:53:51.539Z,96.98
2018-04-13T04:56:19.052Z,96.85
2018-04-13T04:58:46.554Z,96.83
2018-04-13T05:01:14.026Z,94.40
2018-04-13T05:03:41.529Z,93.18
2018-04-13T05:06:09.008Z,94.11
2018-04-13T05:08:36.509Z,94.96
2018-04-13T05:11:04.074Z,95.54
2018-04-13T05:13:31.646Z,95.05
2018-04-13T05:15:59.207Z,94.32
2018-04-13T05:18:26.758Z,94.81
2018-04-13T05:20:54.294Z,95.10
2018-04-13T05:23:21.823Z,95.47
2018-04-13T05:25:49.389Z,95.82
2018-04-13T05:28:16.930Z,96.03
2018-04-13T05:30:44.400Z,96.17
2018-04-13T05:33:11.916Z,96.17
2018-04-13T05:35:39.409Z,95.66
2018-04-13T05:38:06.945Z,95.60
2018-04-13T05:40:34.439Z,95.57
2018-04-13T05:43:01.933Z,95.43
2018-04-13T05:45:29.421Z,95.24
2018-04-13T05:47:56.964Z,95.03
2018-04-13T05:50:24.514Z,93.33
2018-04-13T05:52:52.026Z,93.70
2018-04-13T05:55:19.568Z,93.06
2018-04-13T05:57:47.106Z,93.11
2018-04-13T06:00:14.667Z,92.87
2018-04-13T06:02:42.221Z,93.16
2018-04-13T06:05:09.769Z,92.89
2018-04-13T06:07:37.353Z,92.87
2018-04-13T06:10:04.890Z,92.47
2018-04-13T06:12:32.430Z,92.34
2018-04-13T06:14:59.982Z,92.28
2018-04-13T06:17:27.515Z,91.69
2018-04-13T06:19:55.087Z,91.05
2018-04-13T06:22:22.621Z,91.28
2018-04-13T06:24:50.097Z,90.91
2018-04-13T06:27:17.669Z,87.51
2018-04-13T06:29:45.941Z,84.13
2018-04-13T06:32:13.465Z,82.17
2018-04-13T06:34:40.951Z,81.27
2018-04-13T06:37:08.479Z,81.90
2018-04-13T06:39:36.187Z,81.56
2018-04-13T06:42:03.718Z,81.46
2018-04-13T06:44:31.255Z,81.52
2018-04-13T06:46:58.831Z,80.64
2018-04-13T06:49:26.363Z,79.65
2018-04-13T06:51:53.896Z,80.67
2018-04-13T06:54:21.457Z,80.84
2018-04-13T06:56:48.992Z,80.16
2018-04-13T06:59:16.559Z,77.67
2018-04-13T07:01:44.048Z,74.41
2018-04-13T07:04:11.542Z,74.78
2018-04-13T07:06:39.127Z,72.45
2018-04-13T07:09:06.664Z,73.88
2018-04-13T07:11:34.196Z,75.15
2018-04-13T07:14:01.790Z,73.75
2018-04-13T07:16:29.314Z,72.09
2018-04-13T07:18:56.805Z,71.11
2018-04-13T07:21:24.307Z,70.85
2018-04-13T07:23:51.795Z,68.53
2018-04-13T07:26:19.312Z,71.18
2018-04-13T07:28:46.857Z,68.90
2018-04-13T07:31:14.331Z,66.98
2018-04-13T07:33:42.020Z,66.94
2018-04-13T07:36:09.655Z,67.93
2018-04-13T07:38:37.799Z,67.05
2018-04-13T07:41:05.040Z,69.45
2018-04-13T07:43:32.880Z,66.97
2018-04-13T07:46:00.270Z,66.57
2018-04-13T07:48:27.763Z,65.36
2018-04-13T07:50:55.305Z,66.45
2018-04-13T07:53:22.838Z,66.79
2018-04-13T07:55:50.419Z,65.98
2018-04-13T07:58:17.956Z,64.77
2018-04-13T08:00:46.045Z,64.97
2018-04-13T08:03:13.098Z,63.01
2018-04-13T08:05:40.665Z,63.25
2018-04-13T08:08:08.536Z,64.56
2018-04-13T08:10:36.099Z,65.10
2018-04-13T08:13:03.632Z,63.10
2018-04-13T08:15:31.240Z,62.78
2018-04-13T08:17:58.796Z,61.87
2018-04-13T08:20:26.315Z,58.00
2018-04-13T08:22:53.856Z,59.62
2018-04-13T08:25:21.395Z,57.78
2018-04-13T08:27:48.950Z,61.04
2018-04-13T08:30:16.436Z,57.68
2018-04-13T08:32:43.969Z,57.08
2018-04-13T08:35:11.523Z,55.79
2018-04-13T08:37:39.061Z,54.76
2018-04-13T08:40:06.615Z,53.98
2018-04-13T08:42:34.210Z,53.45
2018-04-13T08:45:02.439Z,53.54
2018-04-13T08:47:30.016Z,52.51
2018-04-13T08:49:57.584Z,51.20
2018-04-13T08:52:25.136Z,50.80
2018-04-13T08:54:52.793Z,48.47
2018-04-13T08:57:20.690Z,49.05
2018-04-13T08:59:48.248Z,50.44
2018-04-13T09:02:15.810Z,52.58
2018-04-13T09:04:43.347Z,48.38
2018-04-13T09:07:10.918Z,51.67
2018-04-13T09:09:38.481Z,47.67
2018-04-13T09:12:06.008Z,48.07
2018-04-13T09:14:40.214Z,47.81
2018-04-13T09:17:07.695Z,47.74
2018-04-13T09:19:35.235Z,50.39
2018-04-13T09:22:02.780Z,42.92
2018-04-13T09:24:30.343Z,42.64
2018-04-13T09:26:57.909Z,43.51
2018-04-13T09:29:25.481Z,40.45
2018-04-13T09:31:53.040Z,41.82
2018-04-13T09:34:20.586Z,40.66
2018-04-13T09:36:48.128Z,42.93
2018-04-13T09:39:15.677Z,40.40
2018-04-13T09:41:43.229Z,41.42
2018-04-13T09:44:10.805Z,38.55
2018-04-13T09:46:38.340Z,40.94
2018-04-13T09:49:05.880Z,39.62
2018-04-13T09:51:33.432Z,41.53
2018-04-13T09:54:00.973Z,43.40
2018-04-13T09:56:28.533Z,39.08
2018-04-13T09:58:56.088Z,36.52
2018-04-13T10:01:23.658Z,36.73
2018-04-13T10:06:57.958Z,38.08
2018-04-13T10:09:25.475Z,35.89
2018-04-13T10:11:53.057Z,36.44
2018-04-13T10:14:20.582Z,34.40
2018-04-13T10:16:48.118Z,33.86
2018-04-13T10:19:15.631Z,33.76
2018-04-13T10:21:43.226Z,34.28
2018-04-13T10:24:10.797Z,36.31
2018-04-13T10:26:38.363Z,34.71
2018-04-13T10:29:12.687Z,37.31
2018-04-13T10:31:45.719Z,31.72
2018-04-13T10:34:13.263Z,34.29
2018-04-13T10:36:40.800Z,33.67
2018-04-13T10:39:08.409Z,35.97
2018-04-13T10:41:35.945Z,36.02
2018-04-13T10:44:03.475Z,35.10
2018-04-13T10:46:31.045Z,34.68
2018-04-13T10:48:58.591Z,36.02
2018-04-13T10:51:26.189Z,33.97
2018-04-13T10:53:53.744Z,34.19
2018-04-13T10:56:21.651Z,34.79
2018-04-13T10:58:49.491Z,34.35
2018-04-13T11:01:17.243Z,34.87
2018-04-13T11:03:45.233Z,36.23
2018-04-13T11:06:12.817Z,38.16
2018-04-13T11:08:41.801Z,36.23
2018-04-13T11:11:09.848Z,35.76
2018-04-13T11:13:37.373Z,35.39
2018-04-13T11:16:13.040Z,36.58
2018-04-13T11:18:45.779Z,34.55
2018-04-13T11:21:13.328Z,35.86
2018-04-13T11:23:40.895Z,33.47
2018-04-13T11:26:13.858Z,34.74
2018-04-13T11:28:41.401Z,33.50
2018-04-13T11:31:09.666Z,30.71
2018-04-13T11:33:37.868Z,31.99
2018-04-13T11:36:05.680Z,29.27
2018-04-13T11:38:34.143Z,28.57
2018-04-13T11:41:01.713Z,27.10
2018-04-13T11:43:30.526Z,30.00
2018-04-13T11:45:58.637Z,30.08
2018-04-13T11:48:26.247Z,30.78
2018-04-13T11:50:55.739Z,32.74
2018-04-13T11:53:24.239Z,32.77
2018-04-13T11:55:55.450Z,33.03
2018-04-13T11:58:23.761Z,34.95
2018-04-13T12:00:52.502Z,35.63
2018-04-13T12:03:23.043Z,33.73
2018-04-13T12:05:56.078Z,33.48
2018-04-13T12:11:27.655Z,29.79
2018-04-13T12:13:55.335Z,30.05
2018-04-13T12:16:22.936Z,30.82
2018-04-13T12:18:56.055Z,30.88
2018-04-13T12:21:28.043Z,32.20
2018-04-13T12:23:59.052Z,32.48
2018-04-13T12:26:28.493Z,32.25
2018-04-13T12:28:56.677Z,32.94
2018-04-13T12:31:24.297Z,33.04
2018-04-13T12:33:51.900Z,32.91
2018-04-13T12:36:19.499Z,30.79
2018-04-13T12:38:47.120Z,30.40
2018-04-13T12:41:14.671Z,32.16
2018-04-13T12:43:42.333Z,31.05
2018-04-13T12:46:10.010Z,29.51
2018-04-13T12:48:37.644Z,29.19
2018-04-13T12:51:05.272Z,29.58
2018-04-13T12:53:32.954Z,30.02
2018-04-13T12:56:00.530Z,29.45
2018-04-13T12:58:28.168Z,27.98
2018-04-13T13:00:55.867Z,27.03
2018-04-13T13:03:23.468Z,29.21
2018-04-13T13:05:51.114Z,28.66
2018-04-13T13:08:18.724Z,30.01
2018-04-13T13:10:46.316Z,30.06
2018-04-13T13:13:13.916Z,29.56
2018-04-13T13:15:41.549Z,28.80
2018-04-13T13:18:09.246Z,27.93
2018-04-13T13:20:37.001Z,27.99
2018-04-13T13:23:04.578Z,29.31
2018-04-13T13:25:32.142Z,28.77
2018-04-13T13:28:00.033Z,26.70
2018-04-13T13:30:27.765Z,27.22
2018-04-13T13:32:55.360Z,28.28
2018-04-13T13:35:23.071Z,25.97
2018-04-13T13:37:50.676Z,26.30
2018-04-13T13:40:18.472Z,26.34
2018-04-13T13:42:51.197Z,25.71
2018-04-13T13:45:19.086Z,25.02
2018-04-13T13:47:46.679Z,24.73
2018-04-13T13:50:14.232Z,27.26
2018-04-13T13:52:41.811Z,24.55
2018-04-13T13:55:09.398Z,25.39
2018-04-13T13:57:36.965Z,24.26
2018-04-13T14:00:05.167Z,24.75
2018-04-13T14:02:32.716Z,24.21
2018-04-13T14:05:00.270Z,22.59
2018-04-13T14:07:27.856Z,23.18
2018-04-13T14:12:58.531Z,22.86
2018-04-13T14:15:26.078Z,22.45
2018-04-13T14:17:53.633Z,21.66
2018-04-13T14:20:21.216Z,22.19
2018-04-13T14:22:48.811Z,20.02
2018-04-13T14:25:16.377Z,19.65
2018-04-13T14:27:43.944Z,20.57
2018-04-13T14:30:11.503Z,21.82
2018-04-13T14:32:39.056Z,23.67
2018-04-13T14:35:06.617Z,23.74
2018-04-13T14:37:34.206Z,22.37
2018-04-13T14:40:01.751Z,23.58
2018-04-13T14:42:29.346Z,23.59
2018-04-13T14:44:56.960Z,23.19
2018-04-13T14:47:24.530Z,24.46
2018-04-13T14:49:52.148Z,21.89
2018-04-13T14:52:19.718Z,21.22
2018-04-13T14:54:47.272Z,21.92
2018-04-13T14:57:14.829Z,20.61
2018-04-13T14:59:42.379Z,21.17
2018-04-13T15:02:09.921Z,19.86
2018-04-13T15:04:37.490Z,21.50
2018-04-13T15:07:05.093Z,22.63
2018-04-13T15:09:32.663Z,22.24
2018-04-13T15:12:00.229Z,22.37
2018-04-13T15:14:27.800Z,19.98
2018-04-13T15:16:55.448Z,21.28
2018-04-13T15:19:23.008Z,20.91
2018-04-13T15:21:50.580Z,22.51
2018-04-13T15:24:18.192Z,21.57
2018-04-13T15:26:45.752Z,20.29
2018-04-13T15:29:13.342Z,20.43
2018-04-13T15:31:40.925Z,21.05
2018-04-13T15:34:08.520Z,22.03
2018-04-13T15:36:36.058Z,22.18
2018-04-13T15:39:03.644Z,21.06
2018-04-13T15:41:31.279Z,18.71
2018-04-13T15:43:58.868Z,18.39
2018-04-13T15:46:26.356Z,19.66
2018-04-13T15:48:53.832Z,22.19
2018-04-13T15:51:21.686Z,23.74
2018-04-13T15:53:49.243Z,22.15
2018-04-13T15:56:25.025Z,20.88
2018-04-13T15:59:09.233Z,19.37
2018-04-13T16:01:45.375Z,21.11
2018-04-13T16:04:14.937Z,22.10
2018-04-13T16:06:45.476Z,23.94
2018-04-13T16:12:19.294Z,24.11
2018-04-13T16:14:48.938Z,21.04
2018-04-13T16:17:20.189Z,20.37
2018-04-13T16:20:14.094Z,21.05
2018-04-13T16:22:49.312Z,22.97
2018-04-13T16:25:23.921Z,24.46
2018-04-13T16:28:02.387Z,23.75
2018-04-13T16:30:35.691Z,26.14
2018-04-13T16:33:06.514Z,25.74
2018-04-13T16:38:20.301Z,29.18
2018-04-13T16:40:53.578Z,30.54
2018-04-13T16:43:24.297Z,28.24
2018-04-13T16:45:52.856Z,26.82
2018-04-13T16:48:26.981Z,28.80
2018-04-13T16:50:58.249Z,30.22
2018-04-13T16:53:35.453Z,31.55
2018-04-13T17:01:52.567Z,39.63
2018-04-13T17:04:26.003Z,43.60
2018-04-13T17:06:58.952Z,45.70
2018-04-13T17:09:35.208Z,47.98
2018-04-13T17:24:25.526Z,50.57
